sensor_id;sensor_type;location;lat;lon;timestamp;P1;durP1;ratioP1;P2;durP2;ratioP2
39188;SDS011;24915;50.858;4.376;2022-12-07T00:01:35;26.70;;;15.55;;
39188;SDS011;24915;50.858;4.376;2022-12-07T00:04:04;24.15;;;16.48;;
39188;SDS011;24915;50.858;4.376;2022-12-07T00:06:32;24.88;;;16.23;;
39188;SDS011;24915;50.858;4.376;2022-12-07T00:08:59;32.42;;;17.95;;
39188;SDS011;24915;50.858;4.376;2022-12-07T00:11:25;27.42;;;16.92;;
39188;SDS011;24915;50.858;4.376;2022-12-07T00:13:55;27.67;;;17.52;;
39188;SDS011;24915;50.858;4.376;2022-12-07T00:16:24;29.13;;;17.88;;
39188;SDS011;24915;50.858;4.376;2022-12-07T00:18:52;29.73;;;18.65;;
39188;SDS011;24915;50.858;4.376;2022-12-07T00:23:48;34.45;;;19.15;;
39188;SDS011;24915;50.858;4.376;2022-12-07T00:26:25;31.17;;;18.77;;
39188;SDS011;24915;50.858;4.376;2022-12-07T00:28:53;34.17;;;19.45;;
39188;SDS011;24915;50.858;4.376;2022-12-07T00:31:22;30.98;;;19.38;;
39188;SDS011;24915;50.858;4.376;2022-12-07T00:33:50;29.73;;;18.08;;
39188;SDS011;24915;50.858;4.376;2022-12-07T00:36:17;27.60;;;19.65;;
39188;SDS011;24915;50.858;4.376;2022-12-07T00:38:45;33.83;;;20.73;;
39188;SDS011;24915;50.858;4.376;2022-12-07T00:41:12;29.42;;;18.80;;
39188;SDS011;24915;50.858;4.376;2022-12-07T00:43:40;36.45;;;20.90;;
39188;SDS011;24915;50.858;4.376;2022-12-07T00:46:06;31.05;;;19.83;;
39188;SDS011;24915;50.858;4.376;2022-12-07T00:48:32;34.35;;;20.30;;
39188;SDS011;24915;50.858;4.376;2022-12-07T00:50:59;38.22;;;20.52;;
39188;SDS011;24915;50.858;4.376;2022-12-07T00:53:25;29.65;;;20.02;;
39188;SDS011;24915;50.858;4.376;2022-12-07T00:55:50;35.35;;;22.40;;
39188;SDS011;24915;50.858;4.376;2022-12-07T00:58:17;30.23;;;20.67;;
39188;SDS011;24915;50.858;4.376;2022-12-07T01:00:43;37.20;;;21.92;;
39188;SDS011;24915;50.858;4.376;2022-12-07T01:03:10;32.80;;;21.52;;
39188;SDS011;24915;50.858;4.376;2022-12-07T01:05:38;37.30;;;21.88;;
39188;SDS011;24915;50.858;4.376;2022-12-07T01:08:04;35.58;;;21.60;;
39188;SDS011;24915;50.858;4.376;2022-12-07T01:10:32;33.72;;;22.35;;
39188;SDS011;24915;50.858;4.376;2022-12-07T01:12:58;35.65;;;22.15;;
39188;SDS011;24915;50.858;4.376;2022-12-07T01:15:23;37.17;;;23.25;;
39188;SDS011;24915;50.858;4.376;2022-12-07T01:17:50;32.15;;;21.67;;
39188;SDS011;24915;50.858;4.376;2022-12-07T01:20:15;33.25;;;20.88;;
39188;SDS011;24915;50.858;4.376;2022-12-07T01:22:42;30.45;;;19.90;;
39188;SDS011;24915;50.858;4.376;2022-12-07T01:25:08;33.38;;;20.50;;
39188;SDS011;24915;50.858;4.376;2022-12-07T01:27:35;33.28;;;21.13;;
39188;SDS011;24915;50.858;4.376;2022-12-07T01:30:02;33.88;;;21.20;;
39188;SDS011;24915;50.858;4.376;2022-12-07T01:32:30;33.78;;;21.45;;
39188;SDS011;24915;50.858;4.376;2022-12-07T01:34:55;34.92;;;20.90;;
39188;SDS011;24915;50.858;4.376;2022-12-07T01:37:21;34.92;;;20.42;;
39188;SDS011;24915;50.858;4.376;2022-12-07T01:39:50;32.35;;;19.85;;
39188;SDS011;24915;50.858;4.376;2022-12-07T01:42:17;32.58;;;20.75;;
39188;SDS011;24915;50.858;4.376;2022-12-07T01:47:40;32.58;;;21.13;;
39188;SDS011;24915;50.858;4.376;2022-12-07T01:50:08;33.70;;;21.25;;
39188;SDS011;24915;50.858;4.376;2022-12-07T01:52:34;30.70;;;20.00;;
39188;SDS011;24915;50.858;4.376;2022-12-07T01:55:06;33.20;;;20.02;;
39188;SDS011;24915;50.858;4.376;2022-12-07T01:57:36;35.20;;;20.58;;
39188;SDS011;24915;50.858;4.376;2022-12-07T02:00:05;31.98;;;19.70;;
39188;SDS011;24915;50.858;4.376;2022-12-07T02:02:33;32.83;;;19.48;;
39188;SDS011;24915;50.858;4.376;2022-12-07T02:05:03;37.10;;;20.77;;
39188;SDS011;24915;50.858;4.376;2022-12-07T02:07:30;31.27;;;19.52;;
39188;SDS011;24915;50.858;4.376;2022-12-07T02:09:57;31.85;;;19.35;;
39188;SDS011;24915;50.858;4.376;2022-12-07T02:12:36;28.75;;;18.90;;
39188;SDS011;24915;50.858;4.376;2022-12-07T02:15:01;31.75;;;20.58;;
39188;SDS011;24915;50.858;4.376;2022-12-07T02:17:39;29.55;;;19.55;;
39188;SDS011;24915;50.858;4.376;2022-12-07T02:20:30;33.60;;;19.52;;
39188;SDS011;24915;50.858;4.376;2022-12-07T02:31:48;32.08;;;18.00;;
39188;SDS011;24915;50.858;4.376;2022-12-07T02:34:37;34.13;;;18.90;;
39188;SDS011;24915;50.858;4.376;2022-12-07T02:37:10;32.60;;;19.52;;
39188;SDS011;24915;50.858;4.376;2022-12-07T02:39:59;33.22;;;19.73;;
39188;SDS011;24915;50.858;4.376;2022-12-07T02:42:47;31.58;;;18.45;;
39188;SDS011;24915;50.858;4.376;2022-12-07T02:45:17;30.02;;;16.90;;
39188;SDS011;24915;50.858;4.376;2022-12-07T02:47:47;29.35;;;17.10;;
39188;SDS011;24915;50.858;4.376;2022-12-07T02:50:17;31.20;;;17.42;;
39188;SDS011;24915;50.858;4.376;2022-12-07T02:52:46;29.63;;;17.25;;
39188;SDS011;24915;50.858;4.376;2022-12-07T02:55:13;33.30;;;18.88;;
39188;SDS011;24915;50.858;4.376;2022-12-07T03:00:31;31.20;;;17.95;;
39188;SDS011;24915;50.858;4.376;2022-12-07T03:03:11;32.22;;;17.45;;
39188;SDS011;24915;50.858;4.376;2022-12-07T03:11:21;35.08;;;18.20;;
39188;SDS011;24915;50.858;4.376;2022-12-07T03:14:00;28.05;;;17.67;;
39188;SDS011;24915;50.858;4.376;2022-12-07T03:16:38;29.15;;;17.67;;
39188;SDS011;24915;50.858;4.376;2022-12-07T03:19:27;29.55;;;17.75;;
39188;SDS011;24915;50.858;4.376;2022-12-07T03:22:02;28.15;;;17.75;;
39188;SDS011;24915;50.858;4.376;2022-12-07T03:24:39;27.80;;;17.70;;
39188;SDS011;24915;50.858;4.376;2022-12-07T03:27:09;36.08;;;17.58;;
39188;SDS011;24915;50.858;4.376;2022-12-07T03:29:45;32.78;;;19.30;;
39188;SDS011;24915;50.858;4.376;2022-12-07T03:35:26;30.95;;;19.67;;
39188;SDS011;24915;50.858;4.376;2022-12-07T03:38:27;26.38;;;18.52;;
39188;SDS011;24915;50.858;4.376;2022-12-07T03:41:00;30.13;;;18.30;;
39188;SDS011;24915;50.858;4.376;2022-12-07T03:43:33;28.30;;;16.95;;
39188;SDS011;24915;50.858;4.376;2022-12-07T03:53:41;23.98;;;16.15;;
39188;SDS011;24915;50.858;4.376;2022-12-07T03:56:11;25.02;;;16.25;;
39188;SDS011;24915;50.858;4.376;2022-12-07T03:58:38;26.50;;;15.40;;
39188;SDS011;24915;50.858;4.376;2022-12-07T04:01:05;23.23;;;14.98;;
39188;SDS011;24915;50.858;4.376;2022-12-07T04:03:31;25.55;;;15.65;;
39188;SDS011;24915;50.858;4.376;2022-12-07T04:05:57;30.40;;;17.88;;
39188;SDS011;24915;50.858;4.376;2022-12-07T04:08:23;24.80;;;15.80;;
39188;SDS011;24915;50.858;4.376;2022-12-07T04:10:49;24.60;;;15.88;;
39188;SDS011;24915;50.858;4.376;2022-12-07T04:13:15;27.05;;;16.10;;
39188;SDS011;24915;50.858;4.376;2022-12-07T04:15:41;29.30;;;15.90;;
39188;SDS011;24915;50.858;4.376;2022-12-07T04:18:06;29.38;;;16.90;;
39188;SDS011;24915;50.858;4.376;2022-12-07T04:20:32;26.17;;;16.35;;
39188;SDS011;24915;50.858;4.376;2022-12-07T04:22:57;29.33;;;16.45;;
39188;SDS011;24915;50.858;4.376;2022-12-07T04:25:23;30.98;;;16.20;;
39188;SDS011;24915;50.858;4.376;2022-12-07T04:27:49;33.05;;;17.50;;
39188;SDS011;24915;50.858;4.376;2022-12-07T04:30:14;26.83;;;17.23;;
39188;SDS011;24915;50.858;4.376;2022-12-07T04:32:40;24.95;;;17.05;;
39188;SDS011;24915;50.858;4.376;2022-12-07T04:35:06;31.38;;;19.60;;
39188;SDS011;24915;50.858;4.376;2022-12-07T04:37:32;30.92;;;18.80;;
39188;SDS011;24915;50.858;4.376;2022-12-07T04:39:57;36.60;;;19.88;;
39188;SDS011;24915;50.858;4.376;2022-12-07T04:42:23;32.08;;;19.58;;
39188;SDS011;24915;50.858;4.376;2022-12-07T04:44:49;29.63;;;19.58;;
39188;SDS011;24915;50.858;4.376;2022-12-07T04:47:15;35.95;;;20.98;;
39188;SDS011;24915;50.858;4.376;2022-12-07T04:49:41;38.10;;;22.55;;
39188;SDS011;24915;50.858;4.376;2022-12-07T04:52:07;33.95;;;21.23;;
39188;SDS011;24915;50.858;4.376;2022-12-07T04:54:32;32.80;;;21.83;;
39188;SDS011;24915;50.858;4.376;2022-12-07T04:56:58;32.58;;;20.63;;
39188;SDS011;24915;50.858;4.376;2022-12-07T04:59:24;34.47;;;21.50;;
39188;SDS011;24915;50.858;4.376;2022-12-07T05:01:50;38.58;;;20.60;;
39188;SDS011;24915;50.858;4.376;2022-12-07T05:04:15;30.75;;;19.83;;
39188;SDS011;24915;50.858;4.376;2022-12-07T05:06:42;35.92;;;21.10;;
39188;SDS011;24915;50.858;4.376;2022-12-07T05:09:08;32.40;;;19.70;;
39188;SDS011;24915;50.858;4.376;2022-12-07T05:11:34;33.95;;;19.50;;
39188;SDS011;24915;50.858;4.376;2022-12-07T05:14:03;32.30;;;19.38;;
39188;SDS011;24915;50.858;4.376;2022-12-07T05:16:34;30.77;;;19.23;;
39188;SDS011;24915;50.858;4.376;2022-12-07T05:19:00;34.63;;;19.67;;
39188;SDS011;24915;50.858;4.376;2022-12-07T05:21:26;27.17;;;17.92;;
39188;SDS011;24915;50.858;4.376;2022-12-07T05:23:52;34.88;;;19.15;;
39188;SDS011;24915;50.858;4.376;2022-12-07T05:26:17;31.08;;;19.40;;
39188;SDS011;24915;50.858;4.376;2022-12-07T05:28:43;33.28;;;18.40;;
39188;SDS011;24915;50.858;4.376;2022-12-07T05:31:09;35.35;;;19.10;;
39188;SDS011;24915;50.858;4.376;2022-12-07T05:33:35;34.25;;;20.35;;
39188;SDS011;24915;50.858;4.376;2022-12-07T05:36:01;29.40;;;18.63;;
39188;SDS011;24915;50.858;4.376;2022-12-07T05:38:30;31.88;;;16.67;;
39188;SDS011;24915;50.858;4.376;2022-12-07T05:40:59;32.97;;;17.90;;
39188;SDS011;24915;50.858;4.376;2022-12-07T05:43:30;26.30;;;17.47;;
39188;SDS011;24915;50.858;4.376;2022-12-07T05:45:56;26.52;;;16.63;;
39188;SDS011;24915;50.858;4.376;2022-12-07T05:48:22;23.45;;;16.15;;
39188;SDS011;24915;50.858;4.376;2022-12-07T05:50:48;33.72;;;18.58;;
39188;SDS011;24915;50.858;4.376;2022-12-07T05:53:14;29.92;;;17.42;;
39188;SDS011;24915;50.858;4.376;2022-12-07T05:55:40;33.03;;;18.35;;
39188;SDS011;24915;50.858;4.376;2022-12-07T05:58:06;27.38;;;18.88;;
39188;SDS011;24915;50.858;4.376;2022-12-07T06:00:50;33.05;;;18.25;;
39188;SDS011;24915;50.858;4.376;2022-12-07T06:03:16;28.15;;;17.77;;
39188;SDS011;24915;50.858;4.376;2022-12-07T06:05:41;30.77;;;17.73;;
39188;SDS011;24915;50.858;4.376;2022-12-07T06:08:07;29.73;;;18.90;;
39188;SDS011;24915;50.858;4.376;2022-12-07T06:10:33;33.90;;;18.52;;
39188;SDS011;24915;50.858;4.376;2022-12-07T06:12:59;31.80;;;19.00;;
39188;SDS011;24915;50.858;4.376;2022-12-07T06:15:24;31.60;;;17.55;;
39188;SDS011;24915;50.858;4.376;2022-12-07T06:17:50;24.77;;;15.95;;
39188;SDS011;24915;50.858;4.376;2022-12-07T06:20:16;31.33;;;15.95;;
39188;SDS011;24915;50.858;4.376;2022-12-07T06:22:41;30.10;;;15.90;;
39188;SDS011;24915;50.858;4.376;2022-12-07T06:25:07;32.33;;;15.57;;
39188;SDS011;24915;50.858;4.376;2022-12-07T06:27:33;28.15;;;15.32;;
39188;SDS011;24915;50.858;4.376;2022-12-07T06:30:00;30.05;;;15.10;;
39188;SDS011;24915;50.858;4.376;2022-12-07T06:32:31;29.38;;;15.02;;
39188;SDS011;24915;50.858;4.376;2022-12-07T06:34:57;24.52;;;14.02;;
39188;SDS011;24915;50.858;4.376;2022-12-07T06:37:23;26.92;;;14.80;;
39188;SDS011;24915;50.858;4.376;2022-12-07T06:39:48;23.17;;;13.55;;
39188;SDS011;24915;50.858;4.376;2022-12-07T06:42:14;25.98;;;14.23;;
39188;SDS011;24915;50.858;4.376;2022-12-07T06:44:39;25.13;;;14.05;;
39188;SDS011;24915;50.858;4.376;2022-12-07T06:47:05;32.22;;;14.77;;
39188;SDS011;24915;50.858;4.376;2022-12-07T06:49:32;23.60;;;14.40;;
39188;SDS011;24915;50.858;4.376;2022-12-07T06:51:58;30.92;;;15.18;;
39188;SDS011;24915;50.858;4.376;2022-12-07T06:54:24;26.73;;;14.75;;
39188;SDS011;24915;50.858;4.376;2022-12-07T06:56:50;23.95;;;15.15;;
39188;SDS011;24915;50.858;4.376;2022-12-07T06:59:16;24.38;;;14.77;;
39188;SDS011;24915;50.858;4.376;2022-12-07T07:01:41;26.08;;;14.93;;
39188;SDS011;24915;50.858;4.376;2022-12-07T07:04:07;23.10;;;14.10;;
39188;SDS011;24915;50.858;4.376;2022-12-07T07:06:33;27.58;;;14.10;;
39188;SDS011;24915;50.858;4.376;2022-12-07T07:08:59;25.48;;;15.07;;
39188;SDS011;24915;50.858;4.376;2022-12-07T07:11:24;23.45;;;14.13;;
39188;SDS011;24915;50.858;4.376;2022-12-07T07:13:50;23.10;;;14.60;;
39188;SDS011;24915;50.858;4.376;2022-12-07T07:16:16;27.20;;;15.68;;
39188;SDS011;24915;50.858;4.376;2022-12-07T07:18:41;31.50;;;15.27;;
39188;SDS011;24915;50.858;4.376;2022-12-07T07:21:07;29.10;;;14.63;;
39188;SDS011;24915;50.858;4.376;2022-12-07T07:23:33;30.20;;;15.02;;
39188;SDS011;24915;50.858;4.376;2022-12-07T07:25:58;31.73;;;15.70;;
39188;SDS011;24915;50.858;4.376;2022-12-07T07:28:24;34.28;;;15.15;;
39188;SDS011;24915;50.858;4.376;2022-12-07T07:30:50;29.00;;;15.35;;
39188;SDS011;24915;50.858;4.376;2022-12-07T07:33:16;33.70;;;15.82;;
39188;SDS011;24915;50.858;4.376;2022-12-07T07:35:41;33.45;;;15.90;;
39188;SDS011;24915;50.858;4.376;2022-12-07T07:38:07;32.33;;;15.25;;
39188;SDS011;24915;50.858;4.376;2022-12-07T07:40:34;28.90;;;14.95;;
39188;SDS011;24915;50.858;4.376;2022-12-07T07:43:00;21.95;;;14.57;;
39188;SDS011;24915;50.858;4.376;2022-12-07T07:45:26;26.48;;;15.38;;
39188;SDS011;24915;50.858;4.376;2022-12-07T07:47:52;25.73;;;14.68;;
39188;SDS011;24915;50.858;4.376;2022-12-07T07:50:18;26.08;;;15.30;;
39188;SDS011;24915;50.858;4.376;2022-12-07T07:52:44;29.63;;;15.05;;
39188;SDS011;24915;50.858;4.376;2022-12-07T07:55:10;26.85;;;15.52;;
39188;SDS011;24915;50.858;4.376;2022-12-07T07:57:37;34.10;;;14.82;;
39188;SDS011;24915;50.858;4.376;2022-12-07T08:00:04;29.67;;;14.27;;
39188;SDS011;24915;50.858;4.376;2022-12-07T08:02:33;21.35;;;13.77;;
39188;SDS011;24915;50.858;4.376;2022-12-07T08:04:59;26.30;;;13.93;;
39188;SDS011;24915;50.858;4.376;2022-12-07T08:07:24;31.55;;;14.65;;
39188;SDS011;24915;50.858;4.376;2022-12-07T08:09:50;28.08;;;13.98;;
39188;SDS011;24915;50.858;4.376;2022-12-07T08:12:16;23.90;;;14.88;;
39188;SDS011;24915;50.858;4.376;2022-12-07T08:14:41;27.00;;;13.93;;
39188;SDS011;24915;50.858;4.376;2022-12-07T08:17:07;26.90;;;15.05;;
39188;SDS011;24915;50.858;4.376;2022-12-07T08:19:32;29.25;;;14.43;;
39188;SDS011;24915;50.858;4.376;2022-12-07T08:21:58;25.15;;;14.15;;
39188;SDS011;24915;50.858;4.376;2022-12-07T08:24:24;25.88;;;12.77;;
39188;SDS011;24915;50.858;4.376;2022-12-07T08:26:50;28.10;;;13.05;;
39188;SDS011;24915;50.858;4.376;2022-12-07T08:29:16;26.38;;;15.45;;
39188;SDS011;24915;50.858;4.376;2022-12-07T08:31:42;29.27;;;14.82;;
39188;SDS011;24915;50.858;4.376;2022-12-07T08:34:09;30.02;;;14.60;;
39188;SDS011;24915;50.858;4.376;2022-12-07T08:36:36;33.15;;;15.80;;
39188;SDS011;24915;50.858;4.376;2022-12-07T08:39:02;27.52;;;14.70;;
39188;SDS011;24915;50.858;4.376;2022-12-07T08:41:28;27.35;;;14.60;;
39188;SDS011;24915;50.858;4.376;2022-12-07T08:43:55;30.15;;;14.05;;
39188;SDS011;24915;50.858;4.376;2022-12-07T08:49:12;26.55;;;14.65;;
39188;SDS011;24915;50.858;4.376;2022-12-07T08:51:44;27.17;;;13.90;;
39188;SDS011;24915;50.858;4.376;2022-12-07T08:54:11;25.95;;;12.85;;
39188;SDS011;24915;50.858;4.376;2022-12-07T08:56:39;22.80;;;12.68;;
39188;SDS011;24915;50.858;4.376;2022-12-07T08:59:06;22.23;;;13.55;;
39188;SDS011;24915;50.858;4.376;2022-12-07T09:01:33;22.42;;;12.40;;
39188;SDS011;24915;50.858;4.376;2022-12-07T09:03:59;24.95;;;12.75;;
39188;SDS011;24915;50.858;4.376;2022-12-07T09:06:25;24.33;;;13.20;;
39188;SDS011;24915;50.858;4.376;2022-12-07T09:08:51;19.42;;;12.27;;
39188;SDS011;24915;50.858;4.376;2022-12-07T09:11:20;20.70;;;12.43;;
39188;SDS011;24915;50.858;4.376;2022-12-07T09:13:46;20.77;;;11.50;;
39188;SDS011;24915;50.858;4.376;2022-12-07T09:16:12;24.75;;;12.35;;
39188;SDS011;24915;50.858;4.376;2022-12-07T09:18:37;26.92;;;12.48;;
39188;SDS011;24915;50.858;4.376;2022-12-07T09:21:03;20.50;;;10.75;;
39188;SDS011;24915;50.858;4.376;2022-12-07T09:23:29;24.05;;;11.02;;
39188;SDS011;24915;50.858;4.376;2022-12-07T09:25:58;18.30;;;9.85;;
39188;SDS011;24915;50.858;4.376;2022-12-07T09:28:27;21.67;;;11.05;;
39188;SDS011;24915;50.858;4.376;2022-12-07T09:30:53;23.73;;;11.98;;
39188;SDS011;24915;50.858;4.376;2022-12-07T09:33:18;26.90;;;10.68;;
39188;SDS011;24915;50.858;4.376;2022-12-07T09:35:46;17.85;;;10.55;;
39188;SDS011;24915;50.858;4.376;2022-12-07T09:38:13;21.33;;;10.70;;
39188;SDS011;24915;50.858;4.376;2022-12-07T09:40:40;24.70;;;11.60;;
39188;SDS011;24915;50.858;4.376;2022-12-07T09:43:29;28.77;;;12.85;;
39188;SDS011;24915;50.858;4.376;2022-12-07T09:45:54;21.58;;;12.35;;
39188;SDS011;24915;50.858;4.376;2022-12-07T09:48:22;24.58;;;13.02;;
39188;SDS011;24915;50.858;4.376;2022-12-07T09:50:58;29.25;;;12.13;;
39188;SDS011;24915;50.858;4.376;2022-12-07T09:53:34;23.63;;;12.85;;
39188;SDS011;24915;50.858;4.376;2022-12-07T09:56:03;22.08;;;11.15;;
39188;SDS011;24915;50.858;4.376;2022-12-07T09:58:30;23.50;;;11.38;;
39188;SDS011;24915;50.858;4.376;2022-12-07T10:01:01;21.83;;;10.60;;
39188;SDS011;24915;50.858;4.376;2022-12-07T10:03:38;22.88;;;12.00;;
39188;SDS011;24915;50.858;4.376;2022-12-07T10:06:05;26.92;;;12.43;;
39188;SDS011;24915;50.858;4.376;2022-12-07T10:08:32;22.77;;;12.48;;
39188;SDS011;24915;50.858;4.376;2022-12-07T10:10:58;28.27;;;12.25;;
39188;SDS011;24915;50.858;4.376;2022-12-07T10:13:36;21.58;;;12.68;;
39188;SDS011;24915;50.858;4.376;2022-12-07T10:16:05;22.77;;;12.27;;
39188;SDS011;24915;50.858;4.376;2022-12-07T10:18:33;25.92;;;12.02;;
39188;SDS011;24915;50.858;4.376;2022-12-07T10:21:08;22.88;;;12.05;;
39188;SDS011;24915;50.858;4.376;2022-12-07T10:31:51;28.55;;;12.30;;
39188;SDS011;24915;50.858;4.376;2022-12-07T10:34:27;22.98;;;11.18;;
39188;SDS011;24915;50.858;4.376;2022-12-07T10:37:07;23.55;;;12.02;;
39188;SDS011;24915;50.858;4.376;2022-12-07T10:42:23;19.23;;;9.77;;
39188;SDS011;24915;50.858;4.376;2022-12-07T10:56:18;28.83;;;9.35;;
39188;SDS011;24915;50.858;4.376;2022-12-07T11:06:38;23.42;;;9.55;;
39188;SDS011;24915;50.858;4.376;2022-12-07T11:14:41;14.95;;;6.95;;
39188;SDS011;24915;50.858;4.376;2022-12-07T11:17:20;14.43;;;7.45;;
39188;SDS011;24915;50.858;4.376;2022-12-07T11:19:54;15.98;;;7.40;;
39188;SDS011;24915;50.858;4.376;2022-12-07T11:27:48;24.95;;;7.80;;
39188;SDS011;24915;50.858;4.376;2022-12-07T11:33:37;14.93;;;6.78;;
39188;SDS011;24915;50.858;4.376;2022-12-07T11:36:17;17.08;;;7.10;;
39188;SDS011;24915;50.858;4.376;2022-12-07T11:38:58;21.92;;;6.47;;
39188;SDS011;24915;50.858;4.376;2022-12-07T11:41:33;24.60;;;8.00;;
39188;SDS011;24915;50.858;4.376;2022-12-07T11:44:06;17.35;;;7.32;;
39188;SDS011;24915;50.858;4.376;2022-12-07T11:46:55;20.08;;;8.70;;
39188;SDS011;24915;50.858;4.376;2022-12-07T11:49:47;18.30;;;8.30;;
39188;SDS011;24915;50.858;4.376;2022-12-07T11:54:59;20.48;;;7.22;;
39188;SDS011;24915;50.858;4.376;2022-12-07T11:57:32;17.60;;;7.00;;
39188;SDS011;24915;50.858;4.376;2022-12-07T12:00:05;13.20;;;5.28;;
39188;SDS011;24915;50.858;4.376;2022-12-07T12:02:41;12.07;;;6.00;;
39188;SDS011;24915;50.858;4.376;2022-12-07T12:05:18;9.80;;;4.85;;
39188;SDS011;24915;50.858;4.376;2022-12-07T12:07:47;12.70;;;4.88;;
39188;SDS011;24915;50.858;4.376;2022-12-07T12:19:59;9.65;;;4.82;;
39188;SDS011;24915;50.858;4.376;2022-12-07T12:22:50;16.45;;;6.35;;
39188;SDS011;24915;50.858;4.376;2022-12-07T12:25:40;10.75;;;4.97;;
39188;SDS011;24915;50.858;4.376;2022-12-07T12:28:18;11.52;;;3.90;;
39188;SDS011;24915;50.858;4.376;2022-12-07T12:30:45;14.48;;;4.75;;
39188;SDS011;24915;50.858;4.376;2022-12-07T12:33:33;8.82;;;4.00;;
39188;SDS011;24915;50.858;4.376;2022-12-07T12:38:48;8.48;;;4.07;;
39188;SDS011;24915;50.858;4.376;2022-12-07T12:47:03;5.27;;;2.73;;
39188;SDS011;24915;50.858;4.376;2022-12-07T12:52:54;10.50;;;3.75;;
39188;SDS011;24915;50.858;4.376;2022-12-07T12:55:22;13.50;;;4.65;;
39188;SDS011;24915;50.858;4.376;2022-12-07T13:00:44;9.90;;;3.60;;
39188;SDS011;24915;50.858;4.376;2022-12-07T13:03:26;14.13;;;4.20;;
39188;SDS011;24915;50.858;4.376;2022-12-07T13:08:44;9.43;;;4.18;;
39188;SDS011;24915;50.858;4.376;2022-12-07T13:11:17;9.45;;;3.97;;
39188;SDS011;24915;50.858;4.376;2022-12-07T13:13:51;12.63;;;4.30;;
39188;SDS011;24915;50.858;4.376;2022-12-07T13:18:42;10.60;;;5.45;;
39188;SDS011;24915;50.858;4.376;2022-12-07T13:26:16;12.80;;;3.92;;
39188;SDS011;24915;50.858;4.376;2022-12-07T13:28:47;10.32;;;3.95;;
39188;SDS011;24915;50.858;4.376;2022-12-07T13:31:26;10.40;;;4.50;;
39188;SDS011;24915;50.858;4.376;2022-12-07T13:33:58;16.13;;;5.10;;
39188;SDS011;24915;50.858;4.376;2022-12-07T13:36:27;7.50;;;3.38;;
39188;SDS011;24915;50.858;4.376;2022-12-07T13:41:54;11.18;;;3.47;;
39188;SDS011;24915;50.858;4.376;2022-12-07T13:44:22;15.45;;;3.75;;
39188;SDS011;24915;50.858;4.376;2022-12-07T13:49:25;12.18;;;3.97;;
39188;SDS011;24915;50.858;4.376;2022-12-07T13:52:07;7.50;;;3.88;;
39188;SDS011;24915;50.858;4.376;2022-12-07T13:54:48;11.68;;;4.63;;
39188;SDS011;24915;50.858;4.376;2022-12-07T13:57:20;17.25;;;5.45;;
39188;SDS011;24915;50.858;4.376;2022-12-07T13:59:46;13.27;;;5.03;;
39188;SDS011;24915;50.858;4.376;2022-12-07T14:02:22;10.15;;;5.10;;
39188;SDS011;24915;50.858;4.376;2022-12-07T14:07:49;19.35;;;6.20;;
39188;SDS011;24915;50.858;4.376;2022-12-07T14:10:30;16.65;;;6.25;;
39188;SDS011;24915;50.858;4.376;2022-12-07T14:12:58;11.95;;;5.72;;
39188;SDS011;24915;50.858;4.376;2022-12-07T14:15:28;13.60;;;5.03;;
39188;SDS011;24915;50.858;4.376;2022-12-07T14:17:57;14.48;;;4.72;;
39188;SDS011;24915;50.858;4.376;2022-12-07T14:23:02;8.30;;;3.38;;
39188;SDS011;24915;50.858;4.376;2022-12-07T14:26:03;7.28;;;3.55;;
39188;SDS011;24915;50.858;4.376;2022-12-07T14:28:36;8.57;;;4.22;;
39188;SDS011;24915;50.858;4.376;2022-12-07T14:31:02;7.95;;;3.90;;
39188;SDS011;24915;50.858;4.376;2022-12-07T14:33:35;11.77;;;5.05;;
39188;SDS011;24915;50.858;4.376;2022-12-07T14:36:01;10.70;;;5.13;;
39188;SDS011;24915;50.858;4.376;2022-12-07T14:38:27;12.95;;;4.85;;
39188;SDS011;24915;50.858;4.376;2022-12-07T14:40:53;9.93;;;4.45;;
39188;SDS011;24915;50.858;4.376;2022-12-07T14:43:40;12.07;;;3.90;;
39188;SDS011;24915;50.858;4.376;2022-12-07T14:46:06;10.23;;;4.60;;
39188;SDS011;24915;50.858;4.376;2022-12-07T14:48:31;9.10;;;4.05;;
39188;SDS011;24915;50.858;4.376;2022-12-07T14:50:57;9.80;;;3.92;;
39188;SDS011;24915;50.858;4.376;2022-12-07T14:53:25;13.90;;;4.28;;
39188;SDS011;24915;50.858;4.376;2022-12-07T14:55:56;7.82;;;2.97;;
39188;SDS011;24915;50.858;4.376;2022-12-07T14:58:22;6.75;;;3.00;;
39188;SDS011;24915;50.858;4.376;2022-12-07T15:00:48;4.60;;;2.50;;
39188;SDS011;24915;50.858;4.376;2022-12-07T15:03:13;11.05;;;3.05;;
39188;SDS011;24915;50.858;4.376;2022-12-07T15:05:39;7.30;;;3.00;;
39188;SDS011;24915;50.858;4.376;2022-12-07T15:08:06;5.00;;;2.78;;
39188;SDS011;24915;50.858;4.376;2022-12-07T15:10:33;5.47;;;2.70;;
39188;SDS011;24915;50.858;4.376;2022-12-07T15:13:00;6.03;;;2.60;;
39188;SDS011;24915;50.858;4.376;2022-12-07T15:15:47;4.05;;;2.72;;
39188;SDS011;24915;50.858;4.376;2022-12-07T15:18:13;6.57;;;3.47;;
39188;SDS011;24915;50.858;4.376;2022-12-07T15:20:39;7.55;;;3.03;;
39188;SDS011;24915;50.858;4.376;2022-12-07T15:23:06;5.18;;;3.05;;
39188;SDS011;24915;50.858;4.376;2022-12-07T15:25:31;6.70;;;3.20;;
39188;SDS011;24915;50.858;4.376;2022-12-07T15:27:57;8.25;;;3.17;;
39188;SDS011;24915;50.858;4.376;2022-12-07T15:30:24;8.55;;;3.65;;
39188;SDS011;24915;50.858;4.376;2022-12-07T15:32:50;7.07;;;3.40;;
39188;SDS011;24915;50.858;4.376;2022-12-07T15:35:16;8.07;;;3.47;;
39188;SDS011;24915;50.858;4.376;2022-12-07T15:37:42;6.13;;;3.13;;
39188;SDS011;24915;50.858;4.376;2022-12-07T15:40:08;12.20;;;4.93;;
39188;SDS011;24915;50.858;4.376;2022-12-07T15:42:35;11.05;;;3.97;;
39188;SDS011;24915;50.858;4.376;2022-12-07T15:45:01;6.70;;;3.17;;
39188;SDS011;24915;50.858;4.376;2022-12-07T15:47:51;13.02;;;4.25;;
39188;SDS011;24915;50.858;4.376;2022-12-07T15:50:16;9.18;;;3.85;;
39188;SDS011;24915;50.858;4.376;2022-12-07T15:52:42;8.80;;;4.45;;
39188;SDS011;24915;50.858;4.376;2022-12-07T15:55:09;9.52;;;5.30;;
39188;SDS011;24915;50.858;4.376;2022-12-07T15:57:35;18.08;;;6.15;;
39188;SDS011;24915;50.858;4.376;2022-12-07T16:00:02;12.25;;;5.63;;
39188;SDS011;24915;50.858;4.376;2022-12-07T16:02:33;21.55;;;7.75;;
39188;SDS011;24915;50.858;4.376;2022-12-07T16:04:59;22.10;;;8.32;;
39188;SDS011;24915;50.858;4.376;2022-12-07T16:07:24;15.07;;;7.82;;
39188;SDS011;24915;50.858;4.376;2022-12-07T16:09:50;16.25;;;6.78;;
39188;SDS011;24915;50.858;4.376;2022-12-07T16:12:15;13.27;;;6.05;;
39188;SDS011;24915;50.858;4.376;2022-12-07T16:14:41;12.98;;;6.63;;
39188;SDS011;24915;50.858;4.376;2022-12-07T16:17:08;17.77;;;5.53;;
39188;SDS011;24915;50.858;4.376;2022-12-07T16:19:35;14.32;;;6.28;;
39188;SDS011;24915;50.858;4.376;2022-12-07T16:22:02;11.85;;;6.85;;
39188;SDS011;24915;50.858;4.376;2022-12-07T16:24:29;21.92;;;7.28;;
39188;SDS011;24915;50.858;4.376;2022-12-07T16:26:56;20.75;;;9.18;;
39188;SDS011;24915;50.858;4.376;2022-12-07T16:29:22;10.45;;;4.75;;
39188;SDS011;24915;50.858;4.376;2022-12-07T16:31:48;10.75;;;5.38;;
39188;SDS011;24915;50.858;4.376;2022-12-07T16:34:14;10.32;;;5.75;;
39188;SDS011;24915;50.858;4.376;2022-12-07T16:36:41;10.57;;;5.75;;
39188;SDS011;24915;50.858;4.376;2022-12-07T16:39:08;7.80;;;5.20;;
39188;SDS011;24915;50.858;4.376;2022-12-07T16:41:36;11.35;;;5.70;;
39188;SDS011;24915;50.858;4.376;2022-12-07T16:44:03;12.98;;;5.85;;
39188;SDS011;24915;50.858;4.376;2022-12-07T16:46:31;13.93;;;6.57;;